Flight Track Log - Related Links

Times and Time Zones

All times are in EDT time to prevent confusion due to time zone crossing. See the JBU1329 flight status page for this flight to view local times or setup timezone preferences in your user account.

Time Position Orientation Groundspeed Altitude Reporting Facility
EDT Latitude Longitude Course Direction KTS MPH feet Rate Location/Type
Tue 09:20:24 AM 42.3833 -71.0167 262° West 159 183 1,000  Level KA90
Tue 09:21:30 AM 42.4000 -71.0833 289° West 201 231 3,400 2,473 Climbing KA90
Tue 09:22:35 AM 42.3747 -71.1756 250° West 251 289 6,400 3,408 Climbing Boston Center
Tue 09:23:00 AM 42.2759 -70.7528 228° Southwest  Level FlightAware Approximate
Tue 09:23:35 AM 42.3253 -71.2353 222° Southwest 263 303 10,500  Level Boston Center
Tue 09:24:00 AM 42.2137 -70.8626 240° Southwest  Level FlightAware Approximate
Tue 09:24:35 AM 42.2908 -71.3372 245° Southwest 273 314 13,200  Level Boston Center
Tue 09:25:00 AM 42.1810 -70.9903 262° West  Level FlightAware Approximate
Tue 09:25:35 AM 42.2625 -71.4386 249° West 303 349 15,900  Level Boston Center
Tue 09:26:35 AM 42.2325 -71.5681 253° West 331 381 18,900 2,500 Climbing Boston Center
Tue 09:27:35 AM 42.2042 -71.6806 251° West 344 396 20,900 2,150 Climbing Boston Center
Tue 09:28:35 AM 42.1672 -71.8069 249° West 349 402 23,200 2,300 Climbing Boston Center
Tue 09:29:35 AM 42.1075 -71.9253 236° Southwest 360 414 25,500 2,500 Climbing Boston Center
Tue 09:30:35 AM 42.0517 -72.0403 237° Southwest 378 435 28,200 1,909 Climbing Boston Center
Tue 09:31:47 AM 41.9978 -72.1553 238° Southwest 378 435 29,700 1,727 Climbing Boston Center
Tue 09:32:47 AM 41.9314 -72.2867 236° Southwest 373 429 32,000 1,950 Climbing Boston Center
Tue 09:33:47 AM 41.8753 -72.3983 236° Southwest 368 423 33,600 1,300 Climbing Boston Center
Tue 09:34:47 AM 41.8189 -72.5097 236° Southwest 368 423 34,600 950 Climbing Boston Center
Tue 09:35:47 AM 41.7625 -72.6267 237° Southwest 368 423 35,500 700 Climbing Boston Center
Tue 09:36:47 AM 41.6975 -72.7569 236° Southwest 373 429 36,000 250 Climbing Boston Center
Tue 09:37:47 AM 41.6367 -72.8789 236° Southwest 384 442 36,000  Level Boston Center
Tue 09:38:47 AM 41.5758 -73.0061 237° Southwest 397 457 36,000  Level Boston Center
Tue 09:39:47 AM 41.5231 -73.1056 235° Southwest 402 463 36,000  Level Boston Center
Tue 09:40:47 AM 41.4639 -73.2294 238° Southwest 394 453 36,000  Level Boston Center
Tue 09:42:30 AM 41.3542 -73.4439 236° Southwest 386 444 36,000  Level New York Center
Tue 09:43:27 AM 41.2911 -73.5656 235° Southwest 392 451 36,000  Level New York Center
Tue 09:44:28 AM 41.2236 -73.6842 233° Southwest 402 463 36,000  Level New York Center
Tue 09:45:28 AM 41.1539 -73.8022 232° Southwest 407 468 36,000  Level New York Center
Tue 09:46:29 AM 41.0822 -73.9203 231° Southwest 407 468 36,000 -248 Level New York Center
Tue 09:47:29 AM 41.0144 -74.0381 233° Southwest 412 474 35,500 -605 Descending New York Center
Tue 09:48:28 AM 40.9444 -74.1528 231° Southwest 412 474 34,800 -706 Descending New York Center
Tue 09:49:28 AM 40.8703 -74.2697 230° Southwest 412 474 34,100 -700 Descending New York Center
Tue 09:50:28 AM 40.7981 -74.3839 230° Southwest 412 474 33,400 -694 Descending New York Center
Tue 09:51:29 AM 40.7297 -74.5036 233° Southwest 412 474 32,700 -1,091 Descending New York Center
Tue 09:52:29 AM 40.6572 -74.6172 230° Southwest 412 474 31,200 -1,750 Descending New York Center
Tue 09:53:29 AM 40.5844 -74.7389 232° Southwest 419 482 29,200 -2,017 Descending New York Center
Tue 09:54:28 AM 40.5100 -74.8464 228° Southwest 419 482 27,200 -1,950 Descending New York Center
Tue 09:55:29 AM 40.4333 -74.9564 228° Southwest 412 474 25,300 -1,884 Descending New York Center
Tue 09:56:29 AM 40.3586 -75.0608 227° Southwest 407 468 23,400 -1,881 Descending New York Center
Tue 09:57:27 AM 40.2839 -75.1650 227° Southwest 402 463 21,600 -1,815 Descending New York Center
Tue 09:58:28 AM 40.2133 -75.2667 228° Southwest 397 457 19,800 -1,721 Descending New York Center
Tue 09:59:29 AM 40.1386 -75.3650 225° Southwest 391 450 18,100 -893 Descending New York Center
Tue 10:00:29 AM 40.0703 -75.4636 228° Southwest 376 433 18,000 -50 Descending New York Center
Tue 10:01:30 AM 39.9997 -75.5589 226° Southwest 371 427 18,000  Level New York Center
Tue 10:02:30 AM 39.9311 -75.6572 228° Southwest 371 427 18,000 -308 Level New York Center
Tue 10:03:27 AM 39.8703 -75.7611 233° Southwest 376 433 17,400 -1,531 Descending New York Center
Tue 10:05:46 AM 39.7500 -76.0000 237° Southwest 340 391 13,000 -1,580 Descending Potomac TRACON
Tue 10:06:52 AM 39.7000 -76.1000 237° Southwest 297 342 12,000 -857 Descending Potomac TRACON
Tue 10:07:52 AM 39.6500 -76.1833 232° Southwest 274 315 11,200 -1,316 Descending Potomac TRACON
Tue 10:08:46 AM 39.6333 -76.2667 255° West 267 307 9,500 -1,774 Descending Potomac TRACON
Tue 10:09:47 AM 39.6000 -76.3500 243° Southwest 264 304 7,800 -1,559 Descending Potomac TRACON
Tue 10:10:53 AM 39.5833 -76.4500 258° West 258 297 6,200 -1,150 Descending Potomac TRACON
Tue 10:11:47 AM 39.5333 -76.5167 226° Southwest 280 322 5,500 -842 Descending Potomac TRACON
Tue 10:12:47 AM 39.4667 -76.5167 180° South 298 343 4,600 -1,100 Descending Potomac TRACON
Tue 10:13:47 AM 39.3833 -76.4833 163° South 282 325 3,300 -800 Descending Potomac TRACON
Tue 10:14:47 AM 39.3167 -76.4833 180° South 258 297 3,000 -300 Descending Potomac TRACON

Login

Don't have an account? Register now (free) for customized features, flight alerts, and more!